Arcata, CA

6:12 AM PDT on September 20, 2014 (GMT -0700)
McKinleyville | Change Station
CLOSE
Current Station
Personal Weather Station
Location: McKinleyville, CA
Elevation: 118 ft
Nearby Weather Stations

Elev 118 ft 40.95 °N, 124.10 °W | Updated 9 seconds ago

Fog
Fog
55.7 °F
Feels Like 55.7 °F
N
0.0
Wind Variable Wind from South
Gusts 0.0 mph

Today
High -- | Low -- °F
--% Chance of Precip.
Yesterday
High -- | Low -- °F
Precip. -- in
7:01 AM 7:16 PM
Waning Crescent, 12% visible
Pressure 29.86 in
Visibility 0.2 miles
Clouds
Dew Point 54 °F
Humidity 93%
Rainfall 0.00 in
Snow Depth 1 in , 1 in , 0 in
UV Not available.
Pollen 6.00 out of 12
Air Quality Not available.
Flu Activity Not available.
METAR KACV 201253Z AUTO 00000KT 1/4SM R32/1600V2000FT FG VV002 13/13 A2984 RMK AO2 SLP110 T01330128

More Conditions Fewer Conditions

Pressure 29.86 in
Visibility 0.2 miles
Clouds
Dew Point 54 °F
Humidity 93%
Rainfall 0.00 in
Snow Depth 1 in , 1 in , 0 in
UV Not available.
Pollen 6.00 out of 12
Air Quality Not available.
Flu Activity Not available.
METAR KACV 201253Z AUTO 00000KT 1/4SM R32/1600V2000FT FG VV002 13/13 A2984 RMK AO2 SLP110 T01330128

More Conditions Fewer Conditions

Nowcast | as of 6:03 am PDT on September 20, 2014

Areas of dense fog will result in significant visibility reductions this morning. Motorists are encouraged to reduce their speed...increase following distances...and use low beam headlights in areas of fog.

×

10-Day Weather Forecast

Almanac

Astronomy

Sep. 20, 2014 Rise Set
Actual Time 7:01 AM PDT 7:16 PM PDT
Civil Twilight 6:34 AM PDT 7:44 PM PDT
Nautical Twilight 6:02 AM PDT 8:16 PM PDT
Astronomical Twilight 5:29 AM PDT 8:48 PM PDT
Moon 3:45 AM PDT 5:24 PM PDT
Length of Visible Light 13h 09m
Length of Day
12h 14m
Tomorrow will be 2m 41s shorter.
Waning Crescent, 12% of the Moon is Illuminated
Today
Waning Crescent
Sep 24
New
Oct 1
First Quarter
Oct 8
Full
Oct 15
Last Quarter

Today's Extremes

State Highs State Lows

Community

WunderPhotos

Upload Photos

1,754,853 photos uploaded!

Nearby

Snow Depth

Station Depth Elevation
Summit Meadow 1 in 9122 ft
Spratt Creek 1 in 6200 ft
Sonora Pass 0 in 8800 ft
Monitor Pass 0 in 8350 ft
Leavitt Meadows 1 in 7200 ft

Earthquake Activity

City Distance Mag. Time & Date
Ferndale, California 100 miles 3.2 5:26 PM PDT
2014-09-17
Minimum magnitude displayed is 2.5.

Coastal Water Temperatures

Place Temperature
North Spit, CA 62.1 °F
Crescent City, CA 64.0 °F

Nearby Weather Stations